createdAt,value
2018-10-04T00:00:07.250Z,99.90
2018-10-04T00:02:34.494Z,99.90
2018-10-04T00:05:01.918Z,99.90
2018-10-04T00:07:40.212Z,99.90
2018-10-04T00:10:07.458Z,99.90
2018-10-04T00:12:36.252Z,99.90
2018-10-04T00:15:03.652Z,99.90
2018-10-04T00:17:30.848Z,99.90
2018-10-04T00:19:58.110Z,99.90
2018-10-04T00:22:25.389Z,99.90
2018-10-04T00:24:52.596Z,99.90
2018-10-04T00:27:19.786Z,99.90
2018-10-04T00:29:46.948Z,99.90
2018-10-04T00:32:14.152Z,99.90
2018-10-04T00:34:41.311Z,99.90
2018-10-04T00:37:16.669Z,99.90
2018-10-04T00:39:43.921Z,99.90
2018-10-04T00:42:11.105Z,99.90
2018-10-04T00:44:38.284Z,99.90
2018-10-04T00:47:10.169Z,99.90
2018-10-04T00:49:38.587Z,99.90
2018-10-04T00:52:05.773Z,99.90
2018-10-04T00:54:32.990Z,99.90
2018-10-04T00:57:01.357Z,99.90
2018-10-04T00:59:28.670Z,99.90
2018-10-04T01:01:55.911Z,99.90
2018-10-04T01:04:23.166Z,99.90
2018-10-04T01:06:50.426Z,99.90
2018-10-04T01:09:17.671Z,99.90
2018-10-04T01:11:45.309Z,99.90
2018-10-04T01:14:12.596Z,99.90
2018-10-04T01:16:44.022Z,99.90
2018-10-04T01:19:11.237Z,99.90
2018-10-04T01:21:38.441Z,99.90
2018-10-04T01:24:05.750Z,99.90
2018-10-04T01:26:33.048Z,99.90
2018-10-04T01:29:00.245Z,99.90
2018-10-04T01:31:27.588Z,99.90
2018-10-04T01:33:54.680Z,99.90
2018-10-04T01:36:21.919Z,99.90
2018-10-04T01:38:49.190Z,99.90
2018-10-04T01:41:17.203Z,99.90
2018-10-04T01:43:44.817Z,99.90
2018-10-04T01:46:12.107Z,99.90
2018-10-04T01:48:39.309Z,99.90
2018-10-04T01:51:06.568Z,99.90
2018-10-04T01:53:33.769Z,99.90
2018-10-04T01:56:01.179Z,99.90
2018-10-04T01:58:28.418Z,99.90
2018-10-04T02:00:55.600Z,99.90
2018-10-04T02:03:22.940Z,99.90
2018-10-04T02:05:50.180Z,99.90
2018-10-04T02:08:17.360Z,99.90
2018-10-04T02:10:44.506Z,99.90
2018-10-04T02:13:11.678Z,99.90
2018-10-04T02:15:39.121Z,99.90
2018-10-04T02:18:06.264Z,99.90
2018-10-04T02:20:33.726Z,99.90
2018-10-04T02:23:03.003Z,99.90
2018-10-04T02:25:30.275Z,99.90
2018-10-04T02:27:57.635Z,99.90
2018-10-04T02:30:25.038Z,99.90
2018-10-04T02:32:52.411Z,99.90
2018-10-04T02:35:19.845Z,99.90
2018-10-04T02:37:47.205Z,99.90
2018-10-04T02:40:14.498Z,99.90
2018-10-04T02:42:41.918Z,99.90
2018-10-04T02:45:09.267Z,99.90
2018-10-04T02:47:37.065Z,99.90
2018-10-04T02:50:05.464Z,99.90
2018-10-04T02:52:32.826Z,99.90
2018-10-04T02:55:05.873Z,99.90
2018-10-04T02:57:33.383Z,99.90
2018-10-04T03:00:08.835Z,99.90
2018-10-04T03:02:36.232Z,99.90
2018-10-04T03:05:03.721Z,99.90
2018-10-04T03:07:31.869Z,99.90
2018-10-04T03:09:59.128Z,99.90
2018-10-04T03:12:26.499Z,99.90
2018-10-04T03:14:54.332Z,99.90
2018-10-04T03:17:21.838Z,99.90
2018-10-04T03:19:49.553Z,99.90
2018-10-04T03:22:17.026Z,99.90
2018-10-04T03:24:44.596Z,99.90
2018-10-04T03:27:12.129Z,99.90
2018-10-04T03:29:39.568Z,99.90
2018-10-04T03:32:06.906Z,99.90
2018-10-04T03:34:35.378Z,99.90
2018-10-04T03:37:02.800Z,99.90
2018-10-04T03:39:30.243Z,99.90
2018-10-04T03:41:57.518Z,99.90
2018-10-04T03:44:25.052Z,99.90
2018-10-04T03:46:52.571Z,99.90
2018-10-04T03:49:21.200Z,99.90
2018-10-04T03:51:48.366Z,99.90
2018-10-04T03:54:16.498Z,99.90
2018-10-04T03:56:44.251Z,99.90
2018-10-04T03:59:11.788Z,99.90
2018-10-04T04:01:39.088Z,99.90
2018-10-04T04:04:06.784Z,99.90
2018-10-04T04:06:34.402Z,99.90
2018-10-04T04:09:02.760Z,99.90
2018-10-04T04:11:30.125Z,99.90
2018-10-04T04:13:57.452Z,99.90
2018-10-04T04:16:24.802Z,99.90
2018-10-04T04:18:54.884Z,99.90
2018-10-04T04:21:22.369Z,99.90
2018-10-04T04:23:51.192Z,99.90
2018-10-04T04:26:18.960Z,99.90
2018-10-04T04:28:47.584Z,99.90
2018-10-04T04:31:14.942Z,99.90
2018-10-04T04:33:42.209Z,99.90
2018-10-04T04:36:09.495Z,99.90
2018-10-04T04:38:37.315Z,99.90
2018-10-04T04:41:04.666Z,99.90
2018-10-04T04:43:32.106Z,99.90
2018-10-04T04:46:00.584Z,99.90
2018-10-04T04:48:28.186Z,99.90
2018-10-04T04:50:56.005Z,99.90
2018-10-04T04:53:30.727Z,99.90
2018-10-04T04:55:58.142Z,99.90
2018-10-04T04:58:25.553Z,99.90
2018-10-04T05:00:53.131Z,99.90
2018-10-04T05:03:21.026Z,99.90
2018-10-04T05:05:48.534Z,99.90
2018-10-04T05:08:16.602Z,99.90
2018-10-04T05:10:46.237Z,99.90
2018-10-04T05:13:13.634Z,99.90
2018-10-04T05:15:41.045Z,99.90
2018-10-04T05:18:09.291Z,99.90
2018-10-04T05:20:52.823Z,99.90
2018-10-04T05:23:20.227Z,99.90
2018-10-04T05:25:47.626Z,99.90
2018-10-04T05:28:14.974Z,99.90
2018-10-04T05:30:42.411Z,99.90
2018-10-04T05:33:09.685Z,99.90
2018-10-04T05:35:36.921Z,99.90
2018-10-04T05:38:05.259Z,99.90
2018-10-04T05:40:32.775Z,99.90
2018-10-04T05:43:01.161Z,99.90
2018-10-04T05:45:28.757Z,99.90
2018-10-04T05:47:56.058Z,99.90
2018-10-04T05:50:23.524Z,99.90
2018-10-04T05:52:51.057Z,99.90
2018-10-04T05:55:18.547Z,99.90
2018-10-04T05:57:45.913Z,99.90
2018-10-04T06:00:31.475Z,99.90
2018-10-04T06:03:02.865Z,99.90
2018-10-04T06:05:30.734Z,99.90
2018-10-04T06:07:58.141Z,99.90
2018-10-04T06:10:25.398Z,99.90
2018-10-04T06:12:52.752Z,99.90
2018-10-04T06:15:20.111Z,99.90
2018-10-04T06:17:47.507Z,99.90
2018-10-04T06:20:15.049Z,99.90
2018-10-04T06:22:42.480Z,99.90
2018-10-04T06:25:10.037Z,99.90
2018-10-04T06:27:39.716Z,99.90
2018-10-04T06:30:07.492Z,99.90
2018-10-04T06:32:34.804Z,99.90
2018-10-04T06:35:06.634Z,99.90
2018-10-04T06:37:33.873Z,99.90
2018-10-04T06:40:01.152Z,99.90
2018-10-04T06:42:28.887Z,99.90
2018-10-04T06:44:57.237Z,99.90
2018-10-04T06:47:24.554Z,99.90
2018-10-04T06:49:52.861Z,99.90
2018-10-04T06:52:20.244Z,99.90
2018-10-04T06:54:47.811Z,99.90
2018-10-04T06:57:15.117Z,99.90
2018-10-04T06:59:44.383Z,99.90
2018-10-04T07:02:11.604Z,99.90
2018-10-04T07:04:39.092Z,99.90
2018-10-04T07:07:06.762Z,99.90
2018-10-04T07:09:34.190Z,99.90
2018-10-04T07:12:01.682Z,99.90
2018-10-04T07:14:28.983Z,99.90
2018-10-04T07:16:56.371Z,99.90
2018-10-04T07:19:23.677Z,99.90
2018-10-04T07:21:50.986Z,99.90
2018-10-04T07:24:18.285Z,99.90
2018-10-04T07:26:49.586Z,99.90
2018-10-04T07:29:17.024Z,99.90
2018-10-04T07:31:44.334Z,99.90
2018-10-04T07:34:11.569Z,99.90
2018-10-04T07:36:38.889Z,99.90
2018-10-04T07:39:07.205Z,99.90
2018-10-04T07:41:34.515Z,99.90
2018-10-04T07:44:02.535Z,99.90
2018-10-04T07:46:29.828Z,99.90
2018-10-04T07:48:57.149Z,99.90
2018-10-04T07:51:24.626Z,99.90
2018-10-04T07:53:51.865Z,99.90
2018-10-04T07:56:19.169Z,99.90
2018-10-04T07:58:46.425Z,99.90
2018-10-04T08:01:13.729Z,99.90
2018-10-04T08:03:41.526Z,99.90
2018-10-04T08:06:08.896Z,99.90
2018-10-04T08:08:36.158Z,99.90
2018-10-04T08:11:03.566Z,99.90
2018-10-04T08:13:32.964Z,99.90
2018-10-04T08:16:00.320Z,99.90
2018-10-04T08:18:27.645Z,99.90
2018-10-04T08:20:54.891Z,99.90
2018-10-04T08:23:22.179Z,99.90
2018-10-04T08:25:49.528Z,99.90
2018-10-04T08:28:24.536Z,99.90
2018-10-04T08:30:52.769Z,99.90
2018-10-04T08:33:20.000Z,99.90
2018-10-04T08:35:47.919Z,99.90
2018-10-04T08:38:15.205Z,99.90
2018-10-04T08:40:42.566Z,99.90
2018-10-04T08:43:09.952Z,99.90
2018-10-04T08:45:39.302Z,99.90
2018-10-04T08:48:07.355Z,99.90
2018-10-04T08:50:35.219Z,99.90
2018-10-04T08:53:02.514Z,99.90
2018-10-04T08:55:33.866Z,99.90
2018-10-04T08:58:02.299Z,99.90
2018-10-04T09:00:30.759Z,99.90
2018-10-04T09:03:00.367Z,99.90
2018-10-04T09:05:28.332Z,99.90
2018-10-04T09:07:55.853Z,99.90
2018-10-04T09:10:23.221Z,99.90
2018-10-04T09:12:50.506Z,99.90
2018-10-04T09:15:18.045Z,99.90
2018-10-04T09:17:45.362Z,99.90
2018-10-04T09:20:12.691Z,99.90
2018-10-04T09:22:39.917Z,99.90
2018-10-04T09:25:07.369Z,99.90
2018-10-04T09:27:36.013Z,99.90
2018-10-04T09:30:09.128Z,99.90
2018-10-04T09:32:36.349Z,99.90
2018-10-04T09:35:03.700Z,99.90
2018-10-04T09:37:30.970Z,99.90
2018-10-04T09:39:58.361Z,99.90
2018-10-04T09:42:25.647Z,99.90
2018-10-04T09:44:53.685Z,99.90
2018-10-04T09:47:27.815Z,99.90
2018-10-04T09:49:56.773Z,99.90
2018-10-04T09:52:24.077Z,99.90
2018-10-04T09:54:58.210Z,99.90
2018-10-04T09:57:31.272Z,99.90
2018-10-04T09:59:59.315Z,99.90
2018-10-04T10:02:32.351Z,99.90
2018-10-04T10:05:07.176Z,99.90
2018-10-04T10:07:49.843Z,99.90
2018-10-04T10:10:17.191Z,99.90
2018-10-04T10:12:45.940Z,99.90
2018-10-04T10:15:13.807Z,99.90
2018-10-04T10:17:52.879Z,99.90
2018-10-04T10:20:20.423Z,99.90
2018-10-04T10:22:47.879Z,99.90
2018-10-04T10:25:15.312Z,99.90
2018-10-04T10:27:42.621Z,99.90
2018-10-04T10:30:09.904Z,99.90
2018-10-04T10:32:37.169Z,99.90
2018-10-04T10:35:04.391Z,99.90
2018-10-04T10:37:31.650Z,99.90
2018-10-04T10:39:59.453Z,99.90
2018-10-04T10:42:26.577Z,99.90
2018-10-04T10:45:00.381Z,99.90
2018-10-04T10:47:27.646Z,99.90
2018-10-04T10:49:54.976Z,99.90
2018-10-04T10:52:22.183Z,99.90
2018-10-04T10:54:49.435Z,99.90
2018-10-04T10:57:16.595Z,99.90
2018-10-04T10:59:44.898Z,99.90
2018-10-04T11:02:13.469Z,99.90
2018-10-04T11:04:40.760Z,99.90
2018-10-04T11:07:08.105Z,99.90
2018-10-04T11:09:35.436Z,99.90
2018-10-04T11:12:02.994Z,99.90
2018-10-04T11:14:30.157Z,99.90
2018-10-04T11:16:58.385Z,99.90
2018-10-04T11:19:25.635Z,99.90
2018-10-04T11:21:54.118Z,99.90
2018-10-04T11:24:22.592Z,99.90
2018-10-04T11:26:50.005Z,99.80
2018-10-04T11:29:17.325Z,99.30
2018-10-04T11:31:44.489Z,98.90
2018-10-04T11:34:11.743Z,98.60
2018-10-04T11:36:40.241Z,98.40
2018-10-04T11:39:08.560Z,98.40
2018-10-04T11:41:36.726Z,97.60
2018-10-04T11:44:07.468Z,97.80
2018-10-04T11:46:34.805Z,97.70
2018-10-04T11:49:02.300Z,98.10
2018-10-04T11:51:29.490Z,97.70
2018-10-04T11:53:56.851Z,97.90
2018-10-04T11:56:24.098Z,97.40
2018-10-04T11:58:52.224Z,96.60
2018-10-04T12:01:19.604Z,96.50
2018-10-04T12:03:46.739Z,96.50
2018-10-04T12:06:13.898Z,95.50
2018-10-04T12:08:41.491Z,95.50
2018-10-04T12:11:08.693Z,95.50
2018-10-04T12:13:36.210Z,95.30
2018-10-04T12:16:03.595Z,95.30
2018-10-04T12:18:30.887Z,95.50
2018-10-04T12:20:58.088Z,95.20
2018-10-04T12:23:25.482Z,94.50
2018-10-04T12:25:53.305Z,94.10
2018-10-04T12:28:26.209Z,93.80
2018-10-04T12:30:54.112Z,94.00
2018-10-04T12:33:21.506Z,93.60
2018-10-04T12:35:48.684Z,94.00
2018-10-04T12:38:16.022Z,94.30
2018-10-04T12:40:43.276Z,94.60
2018-10-04T12:43:10.509Z,94.20
2018-10-04T12:45:37.717Z,94.40
2018-10-04T12:48:05.885Z,93.80
2018-10-04T12:50:39.711Z,93.50
2018-10-04T12:53:06.985Z,93.10
2018-10-04T12:55:34.271Z,92.70
2018-10-04T12:58:02.507Z,93.10
2018-10-04T13:00:29.780Z,92.10
2018-10-04T13:02:57.801Z,92.30
2018-10-04T13:05:24.955Z,92.00
2018-10-04T13:07:52.160Z,90.80
2018-10-04T13:10:19.443Z,91.10
2018-10-04T13:12:46.769Z,91.00
2018-10-04T13:15:13.976Z,90.90
2018-10-04T13:17:41.345Z,90.60
2018-10-04T13:20:08.657Z,91.40
2018-10-04T13:22:36.133Z,90.60
2018-10-04T13:25:03.567Z,90.20
2018-10-04T13:27:30.898Z,91.20
2018-10-04T13:29:58.634Z,90.50
2018-10-04T13:32:25.925Z,90.30
2018-10-04T13:34:53.260Z,89.70
2018-10-04T13:37:23.691Z,88.30
2018-10-04T13:39:52.103Z,87.80
2018-10-04T13:42:19.638Z,88.10
2018-10-04T13:44:46.908Z,87.60
2018-10-04T13:47:14.664Z,86.40
2018-10-04T13:49:42.471Z,86.50
2018-10-04T13:52:20.518Z,86.30
2018-10-04T13:54:50.011Z,83.60
2018-10-04T13:57:17.430Z,84.50
2018-10-04T13:59:44.661Z,86.00
2018-10-04T14:02:11.921Z,86.20
2018-10-04T14:04:39.252Z,86.90
2018-10-04T14:07:06.652Z,87.10
2018-10-04T14:09:37.609Z,86.20
2018-10-04T14:12:05.177Z,84.20
2018-10-04T14:14:32.677Z,83.60
2018-10-04T14:17:00.053Z,82.40
2018-10-04T14:19:27.644Z,82.60
2018-10-04T14:21:54.942Z,82.10
2018-10-04T14:24:26.478Z,80.90
2018-10-04T14:26:53.908Z,82.80
2018-10-04T14:29:21.148Z,81.60
2018-10-04T14:31:49.086Z,80.50
2018-10-04T14:34:16.457Z,79.20
2018-10-04T14:36:43.730Z,79.30
2018-10-04T14:39:11.276Z,80.40
2018-10-04T14:41:39.320Z,78.40
2018-10-04T14:44:06.819Z,77.60
2018-10-04T14:46:33.974Z,76.70
2018-10-04T14:49:01.233Z,78.90
2018-10-04T14:51:28.523Z,80.20
2018-10-04T14:53:55.795Z,78.60
2018-10-04T14:56:25.093Z,79.60
2018-10-04T14:58:52.335Z,78.50
2018-10-04T15:01:27.841Z,76.00
2018-10-04T15:03:55.053Z,76.50
2018-10-04T15:06:22.310Z,77.90
2018-10-04T15:08:49.616Z,77.80
2018-10-04T15:11:16.877Z,75.90
2018-10-04T15:13:44.345Z,77.60
2018-10-04T15:16:11.632Z,78.60
2018-10-04T15:18:38.992Z,79.00
2018-10-04T15:21:06.525Z,78.80
2018-10-04T15:23:34.009Z,79.00
2018-10-04T15:26:01.355Z,78.90
2018-10-04T15:28:29.760Z,77.50
2018-10-04T15:30:57.143Z,76.60
2018-10-04T15:33:24.477Z,75.20
2018-10-04T15:35:52.577Z,75.90
2018-10-04T15:38:20.056Z,74.50
2018-10-04T15:40:47.379Z,73.90
2018-10-04T15:43:15.405Z,73.90
2018-10-04T15:45:43.708Z,74.20
2018-10-04T15:48:11.102Z,74.00
2018-10-04T15:50:38.412Z,73.60
2018-10-04T15:53:05.776Z,74.20
2018-10-04T15:55:33.227Z,74.90
2018-10-04T15:58:00.653Z,74.80
2018-10-04T16:00:28.089Z,75.40
2018-10-04T16:02:55.568Z,74.80
2018-10-04T16:05:22.884Z,74.60
2018-10-04T16:07:50.797Z,75.70
2018-10-04T16:10:18.892Z,74.80
2018-10-04T16:12:47.140Z,73.50
2018-10-04T16:15:20.267Z,73.10
2018-10-04T16:17:47.605Z,72.30
2018-10-04T16:20:14.832Z,71.00
2018-10-04T16:22:45.813Z,71.30
2018-10-04T16:25:13.438Z,72.30
2018-10-04T16:27:46.336Z,71.50
2018-10-04T16:30:14.247Z,70.90
2018-10-04T16:32:41.593Z,70.90
2018-10-04T16:35:08.854Z,70.50
2018-10-04T16:37:36.120Z,70.60
2018-10-04T16:40:03.519Z,70.40
2018-10-04T16:42:31.051Z,71.80
2018-10-04T16:45:02.700Z,73.90
2018-10-04T16:47:30.141Z,76.90
2018-10-04T16:49:57.656Z,80.20
2018-10-04T16:52:25.115Z,84.20
2018-10-04T16:54:54.624Z,88.80
2018-10-04T16:57:22.000Z,91.00
2018-10-04T16:59:49.471Z,91.90
2018-10-04T17:02:16.934Z,92.70
2018-10-04T17:04:44.390Z,93.40
2018-10-04T17:07:12.161Z,94.40
2018-10-04T17:09:39.814Z,95.60
2018-10-04T17:12:07.420Z,96.40
2018-10-04T17:14:34.836Z,97.20
2018-10-04T17:17:02.278Z,97.90
2018-10-04T17:19:29.993Z,98.10
2018-10-04T17:21:57.497Z,98.60
2018-10-04T17:24:26.007Z,98.70
2018-10-04T17:26:53.447Z,99.10
2018-10-04T17:29:20.792Z,99.30
2018-10-04T17:31:49.032Z,99.80
2018-10-04T17:34:16.346Z,99.90
2018-10-04T17:36:57.809Z,99.90
2018-10-04T17:39:25.184Z,99.90
2018-10-04T17:41:52.564Z,99.90
2018-10-04T17:44:22.035Z,99.90
2018-10-04T17:46:49.377Z,99.90
2018-10-04T17:49:16.686Z,99.90
2018-10-04T17:51:47.338Z,99.90
2018-10-04T17:54:14.848Z,99.90
2018-10-04T17:56:42.099Z,99.90
2018-10-04T17:59:09.614Z,99.90
2018-10-04T18:01:36.971Z,99.90
2018-10-04T18:04:07.653Z,99.90
2018-10-04T18:06:35.101Z,99.90
2018-10-04T18:09:03.968Z,99.90
2018-10-04T18:11:32.931Z,99.90
2018-10-04T18:14:00.521Z,99.90
2018-10-04T18:16:28.369Z,99.90
2018-10-04T18:18:56.844Z,99.90
2018-10-04T18:21:24.204Z,99.90
2018-10-04T18:23:52.159Z,99.90
2018-10-04T18:26:19.666Z,99.90
2018-10-04T18:28:47.869Z,99.90
2018-10-04T18:31:15.859Z,99.90
2018-10-04T18:33:43.658Z,99.90
2018-10-04T18:36:11.195Z,99.90
2018-10-04T18:38:38.761Z,99.90
2018-10-04T18:41:07.624Z,99.90
2018-10-04T18:43:35.622Z,99.90
2018-10-04T18:46:03.555Z,99.90
2018-10-04T18:48:31.164Z,99.90
2018-10-04T18:50:59.446Z,99.90
2018-10-04T18:53:27.169Z,99.90
2018-10-04T18:55:54.805Z,99.90
2018-10-04T18:58:23.934Z,99.90
2018-10-04T19:00:52.322Z,99.90
2018-10-04T19:03:21.082Z,99.90
2018-10-04T19:05:52.565Z,99.90
2018-10-04T19:08:20.402Z,99.90
2018-10-04T19:10:50.127Z,99.90
2018-10-04T19:13:22.196Z,99.90
2018-10-04T19:15:50.190Z,99.90
2018-10-04T19:18:18.332Z,99.90
2018-10-04T19:20:46.373Z,99.90
2018-10-04T19:23:14.306Z,99.90
2018-10-04T19:25:41.961Z,99.90
2018-10-04T19:28:09.772Z,99.90
2018-10-04T19:30:38.227Z,99.90
2018-10-04T19:33:06.677Z,99.90
2018-10-04T19:35:35.640Z,99.90
2018-10-04T19:38:03.336Z,99.90
2018-10-04T19:40:30.798Z,99.90
2018-10-04T19:43:02.267Z,99.90
2018-10-04T19:45:31.320Z,99.90
2018-10-04T19:47:59.357Z,99.90
2018-10-04T19:50:26.755Z,99.90
2018-10-04T19:52:54.721Z,99.90
2018-10-04T19:55:23.138Z,99.90
2018-10-04T19:58:04.418Z,99.90
2018-10-04T20:00:52.293Z,99.90
2018-10-04T20:03:20.478Z,99.90
2018-10-04T20:05:48.405Z,99.90
2018-10-04T20:08:15.923Z,99.90
2018-10-04T20:10:44.143Z,99.90
2018-10-04T20:13:11.607Z,99.90
2018-10-04T20:15:40.736Z,99.90
2018-10-04T20:21:02.664Z,99.90
2018-10-04T20:23:30.126Z,99.90
2018-10-04T20:25:57.525Z,99.90
2018-10-04T20:28:24.823Z,99.90
2018-10-04T20:30:52.189Z,99.90
2018-10-04T20:33:19.744Z,99.90
2018-10-04T20:35:47.467Z,99.90
2018-10-04T20:38:14.881Z,99.90
2018-10-04T20:40:46.443Z,99.90
2018-10-04T20:43:13.990Z,99.90
2018-10-04T20:45:42.365Z,99.90
2018-10-04T20:48:20.889Z,99.90
2018-10-04T20:50:49.105Z,99.90
2018-10-04T20:53:16.473Z,99.90
2018-10-04T20:55:43.899Z,99.90
2018-10-04T20:58:28.580Z,99.90
2018-10-04T21:00:55.982Z,99.90
2018-10-04T21:03:23.459Z,99.90
2018-10-04T21:05:50.790Z,99.90
2018-10-04T21:08:18.110Z,99.90
2018-10-04T21:10:45.551Z,99.90
2018-10-04T21:13:23.016Z,99.90
2018-10-04T21:15:50.558Z,99.90
2018-10-04T21:18:17.829Z,99.90
2018-10-04T21:20:45.306Z,99.90
2018-10-04T21:23:12.993Z,99.90
2018-10-04T21:25:40.830Z,99.90
2018-10-04T21:28:12.144Z,99.90
2018-10-04T21:30:39.540Z,99.90
2018-10-04T21:33:07.191Z,99.90
2018-10-04T21:35:35.435Z,99.90
2018-10-04T21:38:07.081Z,99.90
2018-10-04T21:40:34.462Z,99.90
2018-10-04T21:43:02.561Z,99.90
2018-10-04T21:45:30.910Z,99.90
2018-10-04T21:47:58.194Z,99.90
2018-10-04T21:50:26.176Z,99.90
2018-10-04T21:52:53.475Z,99.90
2018-10-04T21:55:20.807Z,99.90
2018-10-04T21:57:48.040Z,99.90
2018-10-04T22:00:15.378Z,99.90
2018-10-04T22:02:42.781Z,99.90
2018-10-04T22:05:11.219Z,99.90
2018-10-04T22:07:38.508Z,99.90
2018-10-04T22:10:05.749Z,99.90
2018-10-04T22:12:33.062Z,99.90
2018-10-04T22:15:00.288Z,99.90
2018-10-04T22:17:28.173Z,99.90
2018-10-04T22:19:55.675Z,99.90
2018-10-04T22:22:22.966Z,99.90
2018-10-04T22:24:50.293Z,99.90
2018-10-04T22:27:17.795Z,99.90
2018-10-04T22:29:45.302Z,99.90
2018-10-04T22:32:12.485Z,99.90
2018-10-04T22:34:39.756Z,99.90
2018-10-04T22:37:14.289Z,99.90
2018-10-04T22:39:41.593Z,99.90
2018-10-04T22:42:08.804Z,99.90
2018-10-04T22:44:35.985Z,99.90
2018-10-04T22:47:03.209Z,99.90
2018-10-04T22:49:30.910Z,99.90
2018-10-04T22:51:58.190Z,99.90
2018-10-04T22:54:25.737Z,99.90
2018-10-04T22:56:53.092Z,99.90
2018-10-04T22:59:20.454Z,99.90
2018-10-04T23:01:47.844Z,99.90
2018-10-04T23:04:15.152Z,99.90
2018-10-04T23:06:42.524Z,99.90
2018-10-04T23:09:10.983Z,99.90
2018-10-04T23:11:38.253Z,99.90
2018-10-04T23:14:06.704Z,99.90
2018-10-04T23:16:38.229Z,99.90
2018-10-04T23:19:06.059Z,99.90
2018-10-04T23:21:33.339Z,99.90
2018-10-04T23:24:00.642Z,99.90
2018-10-04T23:26:28.242Z,99.90
2018-10-04T23:28:55.726Z,99.90
2018-10-04T23:31:23.066Z,99.90
2018-10-04T23:33:50.365Z,99.90
2018-10-04T23:36:17.633Z,99.90
2018-10-04T23:38:46.124Z,99.90
2018-10-04T23:41:13.364Z,99.90
2018-10-04T23:43:40.731Z,99.90
2018-10-04T23:46:08.291Z,99.90
2018-10-04T23:48:35.706Z,99.90
2018-10-04T23:51:05.756Z,99.90
2018-10-04T23:53:33.308Z,99.90
2018-10-04T23:56:01.831Z,99.90
2018-10-04T23:58:29.545Z,99.90
